Site contains unofficial IBTrACS data. Visit the IBTrACS Website to access archived data.

1922 NOT_NAMED (1922160N21121)


IBTrACS version v04r00. Visit IBTrACS website for data access.
Please direct all questions to the IBTrACS Q and A forum

Storm track - Intensity - Wind Radii - Intensity Data - Source Data - All data

Summary Information

Storm ID 1922160N21121
Start Jun 8 22Z
End Jun 10 22Z
ATCF IDs
Track status Best track data.

Storm track plot

Map of storm track

Intensity plots

No Intensity information for this storm


Radial wind information

No radial wind information for this storm


Position and Intensity Table

BASIN ISO_TIME_________ NATURE LAT LON
degrees north degrees east
WP 1922-06-08 22:00:00 NR 20.80 120.60
WP 1922-06-09 00:00:00 NR 21.12 121.13
WP 03:00:00 NR 21.60 121.93
WP 06:00:00 NR 22.05 122.68
WP 09:00:00 NR 22.47 123.38
WP 10:00:00 NR 22.60 123.60
WP 12:00:00 NR 22.85 124.00
WP 15:00:00 NR 23.19 124.55
WP 18:00:00 NR 23.53 125.05
WP 21:00:00 NR 23.88 125.54
WP 22:00:00 NR 24.00 125.70
WP 1922-06-10 00:00:00 NR 24.27 126.06
WP 03:00:00 NR 24.70 126.59
WP 06:00:00 NR 25.14 127.12
WP 09:00:00 NR 25.56 127.64
WP 10:00:00 NR 25.70 127.80
WP 12:00:00 NR 25.96 128.12
WP 15:00:00 NR 26.32 128.58
WP 18:00:00 NR 26.66 129.02
WP 21:00:00 NR 26.99 129.46
WP 22:00:00 NR 27.10 129.60

Source Information

Agency Information
USA
TOKYO
CMA
HKO
NEWDELHI
REUNION
BOM
NADI
WELLINGTON
DS824
TD9636 cons_worldwide_trop_cyclone_18710101-19891231-003:Line=6619
TD9635
NEUMANN
MLC

All available IBTrACS Data

SEASON BASIN SUBBASIN ISO_TIME_________ NATURE LAT LON DIST2LAND LANDFALL IFLAG USA SSHS TD9636 LAT TD9636 LON TD9636 STAGE STORM SPEED STORM DIR
Year degrees north degrees east km km 1 degrees north degrees east kts degrees
1922 WP MM 1922-06-08 22:00:00 NR 20.80 120.60 123 90 __________O___ -1 20.80 120.60 2 18 57
1922 WP MM 1922-06-09 00:00:00 NR 21.12 121.13 91 83 __________P___ -1 21.12 121.13 2 18 57
1922 WP MM 03:00:00 NR 21.60 121.93 108 118 __________P___ -1 21.60 121.93 2 17 57
1922 WP MM 06:00:00 NR 22.05 122.68 174 174 __________P___ -1 22.05 122.68 2 16 57
1922 WP MM 09:00:00 NR 22.47 123.38 215 215 __________P___ -1 22.47 123.38 2 15 57
1922 WP MM 10:00:00 NR 22.60 123.60 232 232 __________O___ -1 22.60 123.60 2 14 57
1922 WP MM 12:00:00 NR 22.85 124.00 268 266 __________P___ -1 22.85 124.00 2 13 56
1922 WP MM 15:00:00 NR 23.19 124.55 310 310 __________P___ -1 23.19 124.55 2 12 55
1922 WP MM 18:00:00 NR 23.53 125.05 343 339 __________P___ -1 23.53 125.05 2 11 53
1922 WP MM 21:00:00 NR 23.88 125.54 371 379 __________P___ -1 23.88 125.54 2 11 52
1922 WP MM 22:00:00 NR 24.00 125.70 389 389 __________O___ -1 24.00 125.70 2 12 50
1922 WP MM 1922-06-10 00:00:00 NR 24.27 126.06 421 421 __________P___ -1 24.27 126.06 2 13 49
1922 WP MM 03:00:00 NR 24.70 126.59 465 465 __________P___ -1 24.70 126.59 2 13 48
1922 WP MM 06:00:00 NR 25.14 127.12 513 523 __________P___ -1 25.14 127.12 2 13 48
1922 WP MM 09:00:00 NR 25.56 127.64 566 576 __________P___ -1 25.56 127.64 2 12 47
1922 WP MM 10:00:00 NR 25.70 127.80 587 587 __________O___ -1 25.70 127.80 2 12 48
1922 WP MM 12:00:00 NR 25.96 128.12 613 563 __________P___ -1 25.96 128.12 2 11 48
1922 WP MM 15:00:00 NR 26.32 128.58 563 507 __________P___ -1 26.32 128.58 2 11 49
1922 WP MM 18:00:00 NR 26.66 129.02 507 461 __________P___ -1 26.66 129.02 2 10 49
1922 WP MM 21:00:00 NR 26.99 129.46 461 448 __________P___ -1 26.99 129.46 2 10 50
1922 WP MM 22:00:00 NR 27.10 129.60 448 __________O___ -1 27.10 129.60 2 10 49